Time;durP1;ratioP1;P1;durP2;ratioP2;P2;SDS_P1;SDS_P2;PMS_P1;PMS_P2;Temp;Humidity;BMP_temperature;BMP_pressure;BME280_temperature;BME280_humidity;BME280_pressure;Samples;Min_cycle;Max_cycle;Signal;HPM_P1;HPM_P2
2022/12/29 00:01:45;;;;;;;7.50;5.30;;;8.40;1.00;;;;;;4992488;28;20678;-56
2022/12/29 00:04:13;;;;;;;6.47;4.90;;;8.40;1.00;;;;;;4993094;28;20663;-56
2022/12/29 00:06:39;;;;;;;6.97;5.47;;;8.40;1.00;;;;;;4992159;28;20271;-56
2022/12/29 00:09:05;;;;;;;7.00;5.37;;;8.40;1.00;;;;;;4992713;28;21118;-56
2022/12/29 00:11:30;;;;;;;5.40;4.90;;;8.40;1.00;;;;;;4991850;28;20323;-56
2022/12/29 00:16:44;;;;;;;6.13;5.63;;;8.40;1.00;;;;;;4991550;28;20254;-56
2022/12/29 00:35:07;;;;;;;5.83;5.33;;;8.40;1.00;;;;;;4992882;28;20479;-56
2022/12/29 00:36:08;;;;;;;6.10;5.60;;;8.60;1.00;;;;;;4992074;28;20922;-55
2022/12/29 00:44:05;;;;;;;6.70;6.07;;;8.70;1.00;;;;;;4992134;28;20462;-55
2022/12/29 00:46:35;;;;;;;6.77;6.10;;;8.80;1.00;;;;;;4992807;28;20426;-55
2022/12/29 00:51:46;;;;;;;6.70;6.00;;;8.80;1.00;;;;;;4991654;28;21293;-55
2022/12/29 00:54:12;;;;;;;6.67;6.00;;;8.80;1.00;;;;;;4991763;28;20482;-55
2022/12/29 00:56:38;;;;;;;6.00;5.50;;;8.80;1.00;;;;;;4991878;28;20458;-55
2022/12/29 00:59:06;;;;;;;7.17;6.20;;;8.90;1.00;;;;;;4992009;28;20847;-56
2022/12/29 01:01:32;;;;;;;6.20;5.60;;;8.80;1.00;;;;;;4991841;28;20211;-55
2022/12/29 01:03:58;;;;;;;7.67;5.70;;;8.90;1.00;;;;;;4991973;28;20412;-55
2022/12/29 01:06:23;;;;;;;8.17;5.63;;;8.90;1.00;;;;;;4992349;28;20836;-55
2022/12/29 01:10:09;;;;;;;9.70;5.37;;;8.90;1.00;;;;;;4992090;28;20214;-55
2022/12/29 01:11:35;;;;;;;10.53;5.80;;;8.90;1.00;;;;;;4971994;28;20244;-56
2022/12/29 01:14:01;;;;;;;6.93;5.13;;;8.90;1.00;;;;;;4979988;28;20897;-55
2022/12/29 01:16:26;;;;;;;6.30;5.33;;;8.90;1.00;;;;;;4990302;28;20291;-56
2022/12/29 01:18:52;;;;;;;6.17;5.53;;;9.00;1.00;;;;;;4991685;28;20239;-54
2022/12/29 01:21:17;;;;;;;8.67;5.27;;;9.00;1.00;;;;;;4991052;28;20216;-54
2022/12/29 01:23:43;;;;;;;5.90;5.30;;;9.10;1.00;;;;;;4991714;28;20176;-55
2022/12/29 01:26:10;;;;;;;5.70;5.10;;;9.10;1.00;;;;;;4991627;28;20239;-54
2022/12/29 01:28:38;;;;;;;5.60;5.03;;;9.10;1.00;;;;;;4990559;28;20196;-55
2022/12/29 01:31:04;;;;;;;5.53;5.00;;;9.20;1.00;;;;;;4991977;28;20427;-54
2022/12/29 01:33:30;;;;;;;5.70;5.20;;;9.10;1.00;;;;;;4991014;28;20428;-55
2022/12/29 01:36:00;;;;;;;6.83;6.00;;;9.10;1.00;;;;;;4991592;28;20240;-54
2022/12/29 01:38:26;;;;;;;9.23;6.10;;;9.20;1.00;;;;;;4983012;28;20875;-55
2022/12/29 01:40:51;;;;;;;8.93;5.93;;;9.20;1.00;;;;;;4990634;28;20443;-55
2022/12/29 01:43:17;;;;;;;7.30;6.30;;;9.10;1.00;;;;;;4991079;28;20550;-55
2022/12/29 01:45:50;;;;;;;7.80;6.90;;;9.10;1.00;;;;;;4991569;28;20191;-55
2022/12/29 01:48:17;;;;;;;8.47;7.50;;;9.10;1.00;;;;;;4993278;28;20598;-55
2022/12/29 01:50:49;;;;;;;9.93;7.40;;;9.20;1.00;;;;;;4994950;28;20909;-56
2022/12/29 01:53:28;;;;;;;10.93;6.80;;;9.20;1.00;;;;;;4995271;28;20901;-55
2022/12/29 01:55:57;;;;;;;8.50;6.93;;;9.20;1.00;;;;;;4994546;28;20530;-55
2022/12/29 01:58:27;;;;;;;9.73;6.90;;;9.20;1.00;;;;;;4995853;28;20424;-56
2022/12/29 02:00:53;;;;;;;8.07;6.43;;;9.20;1.00;;;;;;4995156;28;20501;-56
2022/12/29 02:03:20;;;;;;;7.60;6.80;;;9.30;1.00;;;;;;4994879;28;20470;-56
2022/12/29 02:06:03;;;;;;;10.70;6.73;;;9.20;1.00;;;;;;4994588;28;20377;-57
2022/12/29 02:08:29;;;;;;;10.43;7.40;;;9.30;1.00;;;;;;4993046;28;20917;-56
2022/12/29 02:11:00;;;;;;;7.83;6.40;;;9.20;1.00;;;;;;4993307;28;20439;-56
2022/12/29 02:13:26;;;;;;;7.83;7.00;;;9.30;1.00;;;;;;4995051;28;20746;-56
2022/12/29 02:16:21;;;;;;;8.00;7.13;;;9.30;1.00;;;;;;4987000;28;20439;-56
2022/12/29 02:18:57;;;;;;;7.70;6.83;;;9.30;1.00;;;;;;4975543;28;20494;-56
2022/12/29 02:21:44;;;;;;;9.77;6.60;;;9.30;1.00;;;;;;4993042;28;20472;-56
2022/12/29 02:24:48;;;;;;;7.93;6.60;;;9.30;1.00;;;;;;4996803;28;21348;-56
2022/12/29 02:27:51;;;;;;;11.00;7.10;;;9.30;1.00;;;;;;4954426;28;21374;-56
2022/12/29 02:30:29;;;;;;;10.93;7.07;;;9.40;1.00;;;;;;4994481;28;20465;-56
2022/12/29 02:33:06;;;;;;;10.20;7.10;;;9.40;1.00;;;;;;4994282;28;21184;-55
2022/12/29 02:36:13;;;;;;;7.70;6.20;;;9.40;1.00;;;;;;4988427;28;20448;-55
2022/12/29 02:38:49;;;;;;;8.37;7.20;;;9.40;1.00;;;;;;4979045;28;20442;-54
2022/12/29 02:41:48;;;;;;;8.63;6.17;;;9.50;1.00;;;;;;4980838;28;20433;-54
2022/12/29 02:44:24;;;;;;;7.03;5.83;;;9.50;1.00;;;;;;4985760;28;20439;-54
2022/12/29 02:46:54;;;;;;;7.53;6.27;;;9.60;1.00;;;;;;4990797;28;20779;-54
2022/12/29 02:49:27;;;;;;;9.77;6.70;;;9.60;1.00;;;;;;4991869;28;20431;-54
2022/12/29 02:51:58;;;;;;;12.77;6.40;;;9.70;1.00;;;;;;4993607;28;20439;-54
2022/12/29 02:54:42;;;;;;;9.17;6.00;;;9.70;1.00;;;;;;4976696;28;20435;-54
2022/12/29 02:57:23;;;;;;;8.47;7.07;;;9.70;1.00;;;;;;4991476;28;20470;-55
2022/12/29 03:00:11;;;;;;;8.63;6.60;;;9.70;1.00;;;;;;4993407;28;20427;-54
2022/12/29 03:03:10;;;;;;;10.27;5.77;;;9.70;1.00;;;;;;4981766;28;20476;-54
2022/12/29 03:05:54;;;;;;;7.20;5.90;;;9.80;1.00;;;;;;4993327;28;20478;-54
2022/12/29 03:08:28;;;;;;;11.13;6.07;;;9.80;1.00;;;;;;4993369;28;20416;-54
2022/12/29 03:12:07;;;;;;;6.80;5.43;;;9.80;1.00;;;;;;4993841;28;20509;-54
2022/12/29 03:16:47;;;;;;;8.03;5.57;;;9.80;1.00;;;;;;4990937;28;20438;-54
2022/12/29 03:19:28;;;;;;;7.53;5.03;;;9.80;1.00;;;;;;4991841;28;20533;-54
2022/12/29 03:25:23;;;;;;;7.80;5.70;;;9.80;1.00;;;;;;4980147;28;20933;-53
2022/12/29 03:27:55;;;;;;;5.67;4.83;;;9.80;1.00;;;;;;4990327;28;20991;-53
2022/12/29 03:30:21;;;;;;;6.00;5.40;;;9.70;1.00;;;;;;4983348;28;20448;-54
2022/12/29 03:32:59;;;;;;;5.30;4.80;;;9.70;1.00;;;;;;4990225;28;20457;-54
2022/12/29 03:35:28;;;;;;;7.20;5.10;;;9.70;1.00;;;;;;4989510;28;20194;-54
2022/12/29 03:38:18;;;;;;;5.93;5.43;;;9.70;1.00;;;;;;4992962;28;20494;-54
2022/12/29 03:40:48;;;;;;;5.50;4.93;;;9.70;1.00;;;;;;4993001;28;20784;-54
2022/12/29 03:43:14;;;;;;;8.80;4.97;;;9.80;1.00;;;;;;4990842;28;20467;-55
2022/12/29 03:45:40;;;;;;;5.87;4.80;;;9.80;1.00;;;;;;4989502;28;20530;-53
2022/12/29 03:48:05;;;;;;;5.70;4.53;;;9.80;1.00;;;;;;4991803;28;21007;-55
2022/12/29 03:50:31;;;;;;;4.67;4.27;;;9.80;99.90;;;;;;4991628;28;20183;-53
2022/12/29 03:52:57;;;;;;;5.07;4.47;;;9.80;99.90;;;;;;4990946;28;20195;-54
2022/12/29 03:55:22;;;;;;;6.43;4.57;;;9.80;99.90;;;;;;4991540;28;20203;-53
2022/12/29 03:57:48;;;;;;;5.07;4.67;;;9.80;99.90;;;;;;4988424;28;20185;-54
2022/12/29 04:00:14;;;;;;;7.30;4.90;;;9.80;99.90;;;;;;4992625;28;20192;-54
2022/12/29 04:02:39;;;;;;;4.87;4.17;;;9.90;99.90;;;;;;4989535;28;20306;-53
2022/12/29 04:05:06;;;;;;;7.03;4.73;;;9.90;99.90;;;;;;4991679;28;20489;-53
2022/12/29 04:07:31;;;;;;;5.37;4.87;;;9.80;99.90;;;;;;4986019;28;20195;-53
2022/12/29 04:09:57;;;;;;;5.13;4.63;;;9.90;99.90;;;;;;4973585;28;20443;-53
2022/12/29 04:12:22;;;;;;;6.50;4.83;;;9.80;99.90;;;;;;4990281;28;20536;-53
2022/12/29 04:14:48;;;;;;;5.27;4.27;;;9.90;99.90;;;;;;4990155;28;20234;-53
2022/12/29 04:17:13;;;;;;;5.07;3.63;;;9.90;99.90;;;;;;4989721;28;20188;-53
2022/12/29 04:19:39;;;;;;;4.90;3.90;;;10.00;99.90;;;;;;4975438;28;20232;-53
2022/12/29 04:22:05;;;;;;;6.10;3.70;;;10.00;99.90;;;;;;4991365;28;20220;-53
2022/12/29 04:24:30;;;;;;;4.10;3.80;;;10.00;99.90;;;;;;4992258;28;20188;-53
2022/12/29 04:26:56;;;;;;;3.90;3.60;;;10.00;99.90;;;;;;4962232;28;20555;-53
2022/12/29 04:29:21;;;;;;;4.03;3.63;;;10.10;99.90;;;;;;4991527;28;20562;-52
2022/12/29 04:31:47;;;;;;;3.80;3.40;;;10.20;99.90;;;;;;4989661;28;20196;-53
2022/12/29 04:34:12;;;;;;;3.30;3.00;;;10.10;99.90;;;;;;4991432;28;20199;-52
2022/12/29 04:36:39;;;;;;;4.40;3.20;;;10.20;99.90;;;;;;4990391;28;20202;-52
2022/12/29 04:39:05;;;;;;;3.70;2.70;;;10.20;99.90;;;;;;4991283;28;20176;-53
2022/12/29 04:41:31;;;;;;;3.30;3.00;;;10.20;99.90;;;;;;4990586;28;20476;-53
2022/12/29 04:43:56;;;;;;;3.43;3.13;;;10.20;99.90;;;;;;4992121;28;20435;-53
2022/12/29 04:46:22;;;;;;;3.73;2.53;;;10.20;99.90;;;;;;4990234;28;20216;-53
2022/12/29 04:48:47;;;;;;;2.87;2.67;;;10.20;99.90;;;;;;4990524;28;20665;-53
2022/12/29 04:51:13;;;;;;;2.80;2.60;;;10.20;99.90;;;;;;4990663;28;20199;-53
2022/12/29 04:53:39;;;;;;;2.83;2.63;;;10.20;99.90;;;;;;4981329;28;20271;-53
2022/12/29 04:56:05;;;;;;;3.20;2.70;;;10.20;99.90;;;;;;4981453;28;20654;-53
2022/12/29 04:58:30;;;;;;;2.83;2.63;;;10.20;99.90;;;;;;4992130;28;20313;-53
2022/12/29 05:00:56;;;;;;;2.80;2.57;;;10.20;99.90;;;;;;4979473;28;20806;-53
2022/12/29 05:03:22;;;;;;;3.20;2.90;;;10.20;99.90;;;;;;4989885;28;20266;-54
2022/12/29 05:05:47;;;;;;;2.23;2.13;;;10.20;99.90;;;;;;4990587;28;20220;-54
2022/12/29 05:08:13;;;;;;;5.17;2.50;;;10.20;99.90;;;;;;4987361;28;20632;-54
2022/12/29 05:10:38;;;;;;;2.40;2.20;;;10.20;1.00;;;;;;4989819;28;20279;-54
2022/12/29 05:13:04;;;;;;;3.27;2.93;;;10.20;1.00;;;;;;4990122;28;20200;-55
2022/12/29 05:15:29;;;;;;;2.80;2.60;;;10.10;1.00;;;;;;4990336;28;20761;-55
2022/12/29 05:17:55;;;;;;;2.90;2.70;;;10.10;1.00;;;;;;4989472;28;20228;-55
2022/12/29 05:20:21;;;;;;;3.53;3.03;;;10.20;1.00;;;;;;4991173;28;20586;-55
2022/12/29 05:22:46;;;;;;;3.00;2.80;;;10.20;1.00;;;;;;4993548;28;20712;-55
2022/12/29 05:25:12;;;;;;;3.30;3.00;;;10.20;1.00;;;;;;4993969;28;20191;-57
2022/12/29 05:27:37;;;;;;;2.60;2.40;;;10.20;1.00;;;;;;4976133;28;20184;-55
2022/12/29 05:30:03;;;;;;;3.17;2.87;;;10.30;1.00;;;;;;4995325;28;20227;-58
2022/12/29 05:32:29;;;;;;;3.23;3.03;;;10.30;1.00;;;;;;4991131;28;20208;-57
2022/12/29 05:34:54;;;;;;;3.50;3.20;;;10.20;1.00;;;;;;4994782;28;20443;-56
2022/12/29 05:37:20;;;;;;;4.53;3.17;;;10.20;1.00;;;;;;4992507;28;20211;-60
2022/12/29 05:39:46;;;;;;;3.10;2.90;;;10.20;1.00;;;;;;4994070;28;20298;-56
2022/12/29 05:42:11;;;;;;;3.10;2.90;;;10.20;1.00;;;;;;4991689;28;20215;-56
2022/12/29 05:44:37;;;;;;;2.90;2.70;;;10.30;1.00;;;;;;4993069;28;20185;-59
2022/12/29 05:47:02;;;;;;;3.23;3.00;;;10.20;1.00;;;;;;4994846;28;20657;-55
2022/12/29 05:49:28;;;;;;;2.90;2.70;;;10.30;1.00;;;;;;4975286;28;20211;-55
2022/12/29 05:51:54;;;;;;;3.40;3.20;;;10.30;1.00;;;;;;4993142;28;20184;-54
2022/12/29 05:54:19;;;;;;;3.00;2.80;;;10.30;1.00;;;;;;4993172;28;20293;-54
2022/12/29 05:56:45;;;;;;;2.70;2.50;;;10.40;1.00;;;;;;4992717;28;20203;-55
2022/12/29 05:59:10;;;;;;;3.23;2.90;;;10.40;1.00;;;;;;4994939;28;20348;-54
2022/12/29 06:01:36;;;;;;;2.77;2.57;;;10.40;1.00;;;;;;4991835;28;20215;-55
2022/12/29 06:04:02;;;;;;;2.60;2.40;;;10.40;1.00;;;;;;4992699;28;20242;-54
2022/12/29 06:06:27;;;;;;;2.67;2.47;;;10.40;1.00;;;;;;4992183;28;20184;-59
2022/12/29 06:08:53;;;;;;;2.30;2.20;;;10.50;99.90;;;;;;4994137;28;20195;-53
2022/12/29 06:11:19;;;;;;;2.87;2.33;;;10.50;99.90;;;;;;4995001;28;20303;-53
2022/12/29 06:13:44;;;;;;;2.30;2.20;;;10.60;99.90;;;;;;4975289;28;20195;-55
2022/12/29 06:16:10;;;;;;;2.20;2.10;;;10.60;99.90;;;;;;4992530;28;20190;-55
2022/12/29 06:18:35;;;;;;;3.83;2.47;;;10.60;99.90;;;;;;4975913;28;20237;-53
2022/12/29 06:21:03;;;;;;;2.57;2.30;;;10.60;99.90;;;;;;4991680;28;20200;-54
2022/12/29 06:23:29;;;;;;;2.70;2.50;;;10.60;99.90;;;;;;4975179;28;20712;-53
2022/12/29 06:25:54;;;;;;;2.50;2.30;;;10.60;99.90;;;;;;4994305;28;20432;-54
2022/12/29 06:28:20;;;;;;;2.47;2.13;;;10.60;99.90;;;;;;4994924;28;20187;-53
2022/12/29 06:30:46;;;;;;;3.13;2.10;;;10.60;99.90;;;;;;4990997;28;20191;-53
2022/12/29 06:33:12;;;;;;;2.23;2.10;;;10.60;99.90;;;;;;4990153;28;21004;-53
2022/12/29 06:35:38;;;;;;;3.93;2.50;;;10.50;99.90;;;;;;4992348;28;20447;-53
2022/12/29 06:38:04;;;;;;;3.13;2.20;;;10.50;99.90;;;;;;4992749;28;20943;-57
2022/12/29 06:40:29;;;;;;;2.13;2.03;;;10.50;99.90;;;;;;4993287;28;20211;-54
2022/12/29 06:42:55;;;;;;;2.17;2.07;;;10.50;99.90;;;;;;4992550;28;20218;-53
2022/12/29 06:45:21;;;;;;;2.33;2.13;;;10.50;99.90;;;;;;4993162;28;20311;-53
2022/12/29 06:47:46;;;;;;;2.37;2.17;;;10.50;99.90;;;;;;4992901;28;20191;-53
2022/12/29 06:50:12;;;;;;;1.90;1.80;;;10.40;99.90;;;;;;4975427;28;20188;-54
2022/12/29 06:52:37;;;;;;;3.67;2.20;;;10.50;99.90;;;;;;4993139;28;20200;-53
2022/12/29 06:55:03;;;;;;;2.40;2.20;;;10.40;99.90;;;;;;4992581;28;20195;-53
2022/12/29 06:57:29;;;;;;;3.27;2.23;;;10.40;99.90;;;;;;4992189;28;20196;-54
2022/12/29 06:59:57;;;;;;;2.20;2.10;;;10.40;99.90;;;;;;4989336;28;20805;-54
2022/12/29 07:02:25;;;;;;;2.80;2.60;;;10.30;99.90;;;;;;4985513;28;20694;-57
2022/12/29 07:04:52;;;;;;;2.27;2.17;;;10.30;99.90;;;;;;4989473;28;20439;-53
2022/12/29 07:07:21;;;;;;;2.23;2.03;;;10.30;99.90;;;;;;4974684;28;20469;-53
2022/12/29 07:09:47;;;;;;;3.53;2.10;;;10.30;99.90;;;;;;4992822;28;20431;-54
2022/12/29 07:12:12;;;;;;;2.30;2.20;;;10.20;99.90;;;;;;4992611;28;20446;-54
2022/12/29 07:14:39;;;;;;;2.70;2.50;;;10.20;99.90;;;;;;4993643;28;20185;-54
2022/12/29 07:17:06;;;;;;;2.80;2.60;;;10.20;99.90;;;;;;4989223;28;20268;-54
2022/12/29 07:19:32;;;;;;;2.87;2.10;;;10.20;99.90;;;;;;4992159;28;20523;-54
2022/12/29 07:21:58;;;;;;;2.70;2.50;;;10.20;99.90;;;;;;4989844;28;20463;-53
2022/12/29 07:24:25;;;;;;;2.17;2.07;;;10.20;99.90;;;;;;4991165;28;20450;-54
2022/12/29 07:26:51;;;;;;;2.80;2.50;;;10.20;99.90;;;;;;4990500;28;20622;-54
2022/12/29 07:29:17;;;;;;;3.20;2.40;;;10.20;99.90;;;;;;4973399;28;20449;-53
2022/12/29 07:31:43;;;;;;;2.50;2.40;;;10.20;99.90;;;;;;4987147;28;20790;-53
2022/12/29 07:34:09;;;;;;;2.80;2.60;;;10.20;99.90;;;;;;4992420;28;20235;-54
2022/12/29 07:36:34;;;;;;;2.60;2.40;;;10.20;99.90;;;;;;4991143;28;20188;-54
2022/12/29 07:39:00;;;;;;;2.60;2.40;;;10.20;99.90;;;;;;4990699;28;20451;-54
2022/12/29 07:41:25;;;;;;;2.80;2.60;;;10.20;99.90;;;;;;4989233;28;20270;-54
2022/12/29 07:43:51;;;;;;;3.53;2.70;;;10.10;99.90;;;;;;4988139;28;20752;-54
2022/12/29 07:46:16;;;;;;;4.30;2.53;;;10.10;99.90;;;;;;4976530;28;20642;-54
2022/12/29 07:48:42;;;;;;;5.40;2.60;;;10.10;99.90;;;;;;4991713;28;20191;-53
2022/12/29 07:51:07;;;;;;;2.80;2.60;;;10.20;99.90;;;;;;4987641;28;21173;-53
2022/12/29 07:53:33;;;;;;;2.80;2.60;;;10.30;99.90;;;;;;4990921;28;20639;-53
2022/12/29 07:56:00;;;;;;;3.10;2.80;;;10.30;99.90;;;;;;4985979;28;20185;-53
2022/12/29 07:58:25;;;;;;;2.73;2.50;;;10.30;99.90;;;;;;4982465;28;20199;-53
2022/12/29 08:00:55;;;;;;;3.20;3.00;;;10.40;99.90;;;;;;4991564;28;21298;-54
2022/12/29 08:03:21;;;;;;;2.73;2.47;;;10.30;99.90;;;;;;4989659;28;20242;-53
2022/12/29 08:05:46;;;;;;;2.67;2.10;;;10.30;99.90;;;;;;4990886;28;20945;-53
2022/12/29 08:08:12;;;;;;;2.83;2.07;;;10.30;99.90;;;;;;4990060;28;20247;-53
2022/12/29 08:10:38;;;;;;;3.13;1.80;;;10.30;99.90;;;;;;4990070;28;20199;-53
2022/12/29 08:13:03;;;;;;;1.90;1.80;;;10.30;99.90;;;;;;4991746;28;20199;-53
2022/12/29 08:15:29;;;;;;;1.77;1.67;;;10.30;99.90;;;;;;4972227;28;20585;-54
2022/12/29 08:17:54;;;;;;;1.77;1.67;;;10.30;99.90;;;;;;4970737;28;20327;-54
2022/12/29 08:20:20;;;;;;;2.00;1.90;;;10.30;99.90;;;;;;4973120;28;20201;-54
2022/12/29 08:22:45;;;;;;;3.10;2.30;;;10.20;99.90;;;;;;4971150;28;20220;-53
2022/12/29 08:25:11;;;;;;;3.00;2.00;;;10.20;99.90;;;;;;4971563;28;20189;-54
2022/12/29 08:27:36;;;;;;;2.90;2.43;;;10.20;99.90;;;;;;4971617;28;20295;-54
2022/12/29 08:30:03;;;;;;;3.03;2.73;;;10.20;99.90;;;;;;4968988;28;20186;-55
2022/12/29 08:32:29;;;;;;;2.80;2.60;;;10.20;99.90;;;;;;4968757;28;20185;-55
2022/12/29 08:34:55;;;;;;;3.37;2.73;;;10.20;99.90;;;;;;4971307;28;20961;-54
2022/12/29 08:37:21;;;;;;;2.90;2.23;;;10.20;99.90;;;;;;4959855;28;20473;-54
2022/12/29 08:39:47;;;;;;;3.90;2.50;;;10.30;99.90;;;;;;4970632;28;20198;-53
2022/12/29 08:42:13;;;;;;;4.00;2.77;;;10.30;99.90;;;;;;4967257;28;20488;-54
2022/12/29 08:44:39;;;;;;;5.57;2.33;;;10.30;99.90;;;;;;4959829;28;20198;-55
2022/12/29 08:47:04;;;;;;;5.13;2.40;;;10.30;99.90;;;;;;4966460;28;20185;-53
2022/12/29 08:49:30;;;;;;;2.40;2.20;;;10.30;99.90;;;;;;4970881;28;20512;-54
2022/12/29 08:51:56;;;;;;;3.80;1.90;;;10.30;99.90;;;;;;4971226;28;20500;-55
2022/12/29 08:54:21;;;;;;;2.90;1.67;;;10.40;99.90;;;;;;4971263;28;20196;-53
2022/12/29 08:56:47;;;;;;;2.30;1.77;;;10.40;94.30;;;;;;4969609;28;20710;-53
2022/12/29 08:59:12;;;;;;;3.73;1.93;;;10.40;71.00;;;;;;4971904;28;20207;-53
2022/12/29 09:01:40;;;;;;;3.30;1.50;;;10.40;57.10;;;;;;4966705;28;20261;-53
2022/12/29 09:04:06;;;;;;;2.33;1.90;;;10.50;25.30;;;;;;4960284;28;20184;-53
2022/12/29 09:06:32;;;;;;;1.80;1.60;;;10.50;1.00;;;;;;4971621;28;20445;-52
2022/12/29 09:08:58;;;;;;;7.70;1.90;;;10.60;1.00;;;;;;4966748;28;20942;-56
2022/12/29 09:11:25;;;;;;;3.50;1.50;;;10.60;1.00;;;;;;4968656;28;20200;-53
2022/12/29 09:13:51;;;;;;;3.10;1.37;;;10.60;1.00;;;;;;4968180;28;20527;-53
2022/12/29 09:16:18;;;;;;;3.27;1.60;;;10.70;1.00;;;;;;4970714;28;20440;-54
2022/12/29 09:18:44;;;;;;;2.20;1.50;;;10.70;99.90;;;;;;4981130;28;20479;-53
2022/12/29 09:21:11;;;;;;;1.53;1.40;;;10.70;99.90;;;;;;4974304;28;20431;-52
2022/12/29 09:23:37;;;;;;;3.13;1.47;;;10.70;99.90;;;;;;4990572;28;20486;-53
2022/12/29 09:26:04;;;;;;;4.10;1.40;;;10.70;99.90;;;;;;4983429;28;20437;-53
2022/12/29 09:28:30;;;;;;;3.50;1.50;;;10.70;99.90;;;;;;4983242;28;20526;-53
2022/12/29 09:30:57;;;;;;;3.73;1.67;;;10.80;98.00;;;;;;4988436;28;20452;-54
2022/12/29 09:33:23;;;;;;;1.83;1.30;;;10.90;1.00;;;;;;4989979;28;20995;-52
2022/12/29 09:36:08;;;;;;;4.70;1.23;;;10.90;99.90;;;;;;4987803;28;20447;-52
2022/12/29 09:38:33;;;;;;;2.23;1.20;;;10.90;99.90;;;;;;4977581;28;20189;-52
2022/12/29 09:41:18;;;;;;;4.17;1.40;;;10.90;99.90;;;;;;4986862;28;20439;-53
2022/12/29 09:44:06;;;;;;;6.80;1.90;;;10.90;1.00;;;;;;4987470;28;20196;-53
2022/12/29 09:46:39;;;;;;;3.07;1.50;;;10.80;1.00;;;;;;4987514;28;20404;-53
2022/12/29 09:49:08;;;;;;;3.03;1.50;;;10.70;1.00;;;;;;4987525;28;20893;-54
2022/12/29 09:51:37;;;;;;;6.27;1.20;;;10.70;6.40;;;;;;4989678;28;20474;-52
2022/12/29 09:54:28;;;;;;;3.57;1.20;;;10.60;28.80;;;;;;4987292;28;20439;-52
2022/12/29 09:56:55;;;;;;;2.67;1.23;;;10.60;26.40;;;;;;4984494;28;20439;-53
2022/12/29 09:59:26;;;;;;;6.13;1.70;;;10.60;1.00;;;;;;4981409;28;20446;-52
2022/12/29 10:02:08;;;;;;;5.53;1.37;;;10.60;99.90;;;;;;4981479;28;20467;-53
2022/12/29 10:04:34;;;;;;;4.07;1.27;;;10.70;1.00;;;;;;4989803;28;20875;-53
2022/12/29 10:07:25;;;;;;;3.53;1.40;;;10.70;1.00;;;;;;4991077;28;20514;-53
2022/12/29 10:10:19;;;;;;;4.40;1.30;;;10.80;1.00;;;;;;4952831;28;20211;-54
2022/12/29 10:13:01;;;;;;;5.70;1.80;;;10.70;1.00;;;;;;4994228;28;20412;-53
2022/12/29 10:15:48;;;;;;;6.30;1.70;;;10.70;99.90;;;;;;4985376;28;20426;-53
2022/12/29 10:18:48;;;;;;;4.37;1.70;;;10.70;99.90;;;;;;4991826;28;21049;-56
2022/12/29 10:21:45;;;;;;;3.37;1.50;;;10.70;98.50;;;;;;4976831;28;20443;-53
2022/12/29 10:24:12;;;;;;;3.80;1.40;;;10.60;99.90;;;;;;4988142;28;20439;-53
2022/12/29 10:26:43;;;;;;;8.83;1.70;;;10.70;1.00;;;;;;4994436;28;20431;-52
2022/12/29 10:29:19;;;;;;;3.53;1.13;;;10.80;99.90;;;;;;4992255;28;20466;-54
2022/12/29 10:32:01;;;;;;;4.17;1.50;;;10.90;99.90;;;;;;4986169;28;20999;-53
2022/12/29 10:34:37;;;;;;;4.27;1.33;;;10.80;99.90;;;;;;4976533;28;20439;-52
2022/12/29 10:37:25;;;;;;;4.60;1.73;;;10.80;99.90;;;;;;4994055;28;20422;-53
2022/12/29 10:39:53;;;;;;;7.63;1.97;;;10.90;99.90;;;;;;4992579;28;20937;-53
2022/12/29 10:42:28;;;;;;;5.67;2.00;;;11.00;99.90;;;;;;4992106;28;20474;-52
2022/12/29 10:44:55;;;;;;;3.30;1.50;;;11.10;99.90;;;;;;4991747;28;21272;-54
2022/12/29 10:47:27;;;;;;;10.03;1.50;;;11.50;1.00;;;;;;4992161;28;20451;-52
2022/12/29 10:49:54;;;;;;;3.50;1.60;;;11.80;99.90;;;;;;4985533;28;20523;-52
2022/12/29 10:52:22;;;;;;;5.80;1.60;;;12.10;1.00;;;;;;4991123;28;20447;-52
2022/12/29 10:54:59;;;;;;;5.20;1.77;;;12.60;1.00;;;;;;4993250;28;20518;-51
2022/12/29 10:57:39;;;;;;;4.80;1.47;;;13.60;99.90;;;;;;4993929;28;20809;-52
2022/12/29 11:00:21;;;;;;;7.10;1.33;;;14.50;99.90;;;;;;4993792;28;20431;-51
2022/12/29 11:03:06;;;;;;;5.60;1.67;;;15.20;1.00;;;;;;4974159;28;20470;-52
2022/12/29 11:05:46;;;;;;;6.00;1.77;;;15.10;1.00;;;;;;4971160;28;20445;-52
2022/12/29 11:08:16;;;;;;;6.63;1.83;;;13.80;1.00;;;;;;4979822;28;20431;-52
2022/12/29 11:10:44;;;;;;;11.03;2.00;;;12.80;1.00;;;;;;4993704;28;20411;-53
2022/12/29 11:13:18;;;;;;;5.00;1.67;;;12.40;1.00;;;;;;4991931;28;20522;-52
2022/12/29 11:15:47;;;;;;;5.90;1.50;;;12.30;30.30;;;;;;4993454;28;20455;-51
2022/12/29 11:18:26;;;;;;;7.90;1.30;;;12.50;9.60;;;;;;4975817;28;20566;-51
2022/12/29 11:20:59;;;;;;;7.97;1.50;;;12.60;2.00;;;;;;4991590;28;20451;-51
2022/12/29 11:23:41;;;;;;;4.50;1.77;;;12.80;1.00;;;;;;4984708;28;20993;-52
2022/12/29 11:26:10;;;;;;;9.20;1.43;;;12.60;1.00;;;;;;4991538;28;20498;-51
2022/12/29 11:28:37;;;;;;;3.73;1.20;;;12.20;1.00;;;;;;4992712;28;20898;-53
2022/12/29 11:31:04;;;;;;;5.63;1.87;;;11.80;1.00;;;;;;4993339;28;20813;-53
2022/12/29 11:33:31;;;;;;;4.13;1.33;;;11.50;8.30;;;;;;4991004;28;20450;-52
2022/12/29 11:36:01;;;;;;;3.03;1.37;;;11.40;34.10;;;;;;4985285;28;20921;-51
2022/12/29 11:38:38;;;;;;;3.43;1.33;;;11.30;50.00;;;;;;4983272;28;20519;-52
2022/12/29 11:41:05;;;;;;;2.80;1.20;;;11.30;52.40;;;;;;4970961;28;20483;-52
2022/12/29 11:43:34;;;;;;;4.53;1.30;;;11.30;58.10;;;;;;4991739;28;20463;-52
2022/12/29 11:46:03;;;;;;;1.93;1.00;;;11.30;44.80;;;;;;4993203;28;20424;-52
2022/12/29 11:48:40;;;;;;;3.90;1.60;;;11.20;44.70;;;;;;4983631;28;20984;-53
2022/12/29 11:51:07;;;;;;;3.30;1.30;;;11.10;54.30;;;;;;4989989;28;20428;-52
2022/12/29 11:53:39;;;;;;;4.17;1.83;;;11.00;69.70;;;;;;4990476;28;20964;-51
2022/12/29 11:56:16;;;;;;;5.00;1.10;;;11.00;73.80;;;;;;4991293;28;20800;-51
2022/12/29 11:58:42;;;;;;;2.93;1.17;;;11.00;73.60;;;;;;4988232;28;20959;-51
2022/12/29 12:01:23;;;;;;;2.97;1.00;;;11.10;70.30;;;;;;4989428;28;20399;-52
2022/12/29 12:04:06;;;;;;;3.47;1.30;;;11.10;81.80;;;;;;4988694;28;20438;-51
2022/12/29 12:06:37;;;;;;;3.73;1.17;;;11.00;71.20;;;;;;4989374;28;20416;-52
2022/12/29 12:09:10;;;;;;;4.30;1.20;;;11.00;75.10;;;;;;4990433;28;20812;-51
2022/12/29 12:11:41;;;;;;;7.07;1.20;;;10.90;99.00;;;;;;4989097;28;20403;-50
2022/12/29 12:14:30;;;;;;;5.00;1.37;;;10.80;99.90;;;;;;4989541;28;20463;-50
2022/12/29 12:17:02;;;;;;;7.70;1.07;;;10.70;99.90;;;;;;4990392;28;20436;-54
2022/12/29 12:19:41;;;;;;;4.57;1.43;;;10.70;99.90;;;;;;4990414;28;20490;-51
2022/12/29 12:22:21;;;;;;;4.57;1.23;;;10.70;99.90;;;;;;4986306;28;20474;-50
2022/12/29 12:24:50;;;;;;;3.10;1.20;;;10.70;99.90;;;;;;4990621;28;20427;-50
2022/12/29 12:27:35;;;;;;;7.37;1.47;;;10.60;99.90;;;;;;4988959;28;20443;-50
2022/12/29 12:30:05;;;;;;;9.93;1.73;;;10.60;99.90;;;;;;4989385;28;21269;-50
2022/12/29 12:33:00;;;;;;;7.47;1.70;;;10.60;99.90;;;;;;4988179;28;20447;-49
2022/12/29 12:35:31;;;;;;;7.03;1.50;;;10.60;99.90;;;;;;4954631;28;20448;-50
2022/12/29 12:38:03;;;;;;;8.53;1.80;;;10.60;99.90;;;;;;4971096;28;20478;-51
2022/12/29 12:40:59;;;;;;;5.93;1.47;;;10.60;98.70;;;;;;4979497;28;20436;-50
2022/12/29 12:43:59;;;;;;;4.30;1.47;;;10.60;92.30;;;;;;4987516;28;20586;-50
2022/12/29 12:46:36;;;;;;;7.60;2.00;;;10.50;45.40;;;;;;4989772;28;20416;-50
2022/12/29 12:49:52;;;;;;;5.67;1.90;;;10.50;39.10;;;;;;4989350;28;20416;-51
2022/12/29 12:52:46;;;;;;;9.13;1.70;;;10.50;44.10;;;;;;4987568;28;20497;-51
2022/12/29 12:55:32;;;;;;;6.97;1.90;;;10.50;33.30;;;;;;4987305;28;20467;-49
2022/12/29 12:58:25;;;;;;;4.33;1.27;;;10.60;22.90;;;;;;4990727;28;20251;-50
2022/12/29 13:00:57;;;;;;;5.83;1.40;;;10.60;12.80;;;;;;4974967;28;20451;-50
2022/12/29 13:03:45;;;;;;;4.17;1.47;;;10.60;2.60;;;;;;4985915;28;20554;-50
2022/12/29 13:06:37;;;;;;;7.17;1.73;;;10.60;1.00;;;;;;4983865;28;20455;-50
2022/12/29 13:09:30;;;;;;;3.93;1.50;;;10.60;1.00;;;;;;4979408;28;20435;-50
2022/12/29 13:12:29;;;;;;;6.47;1.77;;;10.70;1.00;;;;;;4982930;28;20447;-50
2022/12/29 13:14:59;;;;;;;3.30;1.60;;;10.70;1.00;;;;;;4974196;28;20422;-50
2022/12/29 13:17:45;;;;;;;2.90;1.30;;;10.70;1.00;;;;;;4985744;28;20447;-51
2022/12/29 13:20:16;;;;;;;6.27;1.40;;;10.70;1.00;;;;;;4994282;28;20485;-51
2022/12/29 13:23:12;;;;;;;6.83;1.50;;;10.70;1.00;;;;;;4970457;28;20474;-51
2022/12/29 13:25:45;;;;;;;5.87;1.80;;;10.60;1.00;;;;;;4958347;28;21133;-53
2022/12/29 13:28:16;;;;;;;7.83;1.77;;;10.40;89.30;;;;;;4988878;28;20442;-53
2022/12/29 13:31:06;;;;;;;7.77;1.70;;;10.20;99.90;;;;;;4989156;28;20423;-53
2022/12/29 13:34:00;;;;;;;8.00;2.00;;;10.00;1.00;;;;;;4972593;28;20446;-53
2022/12/29 13:36:45;;;;;;;4.33;1.47;;;9.90;99.90;;;;;;4990039;28;20408;-52
2022/12/29 13:39:19;;;;;;;6.73;2.00;;;9.80;1.00;;;;;;4989449;28;20522;-52
2022/12/29 13:41:53;;;;;;;2.60;1.63;;;9.70;99.90;;;;;;4990813;28;20419;-51
2022/12/29 13:44:28;;;;;;;4.70;1.70;;;9.70;83.30;;;;;;4983546;28;20438;-51
2022/12/29 13:46:56;;;;;;;6.03;1.40;;;9.70;99.90;;;;;;4979507;28;20424;-51
2022/12/29 13:49:26;;;;;;;7.03;1.83;;;9.60;99.90;;;;;;4992958;28;20529;-51